Hi Hat, KY (41636)

2:44 PM EDT on May 25, 2015 (GMT -0400)
Quail Ridge | | Change Station
CLOSE
Current Station
Personal Weather Station
Location: Pikeville, KY
Elevation: 778 ft
Nearby Weather Stations

Elev 778 ft 37.50 °N, 82.54 °W | Updated 2 seconds ago

Clear
Clear
87.9 °F
Feels Like 89 °F
N
0.0
Wind Variable Wind from SW
Gusts 0.0 mph

Today
High -- | Low -- °F
--% Chance of Precip.
Yesterday
High -- | Low -- °F
Precip. -- in
6:15 AM 8:40 PM
Waxing Crescent, 50% visible
Pressure 30.21 in
Visibility 10.0 miles
Clouds Mostly Cloudy 7000 ft
Overcast 8000 ft
Heat Index 89 °F
Dew Point 63 °F
Humidity 43%
Rainfall 0.79 in
Snow Depth Not available.
UV 3 out of 12
Pollen 7.20 out of 12
Air Quality Not available.
Flu Activity Sporadic
METAR KSJS 251835Z AUTO 24005KT 10SM BKN070 OVC080 28/16 A3021 RMK AO2 T02810158

More Conditions Fewer Conditions

Pressure 30.21 in
Visibility 10.0 miles
Clouds Mostly Cloudy 7000 ft
Overcast 8000 ft
Heat Index 89 °F
Dew Point 63 °F
Humidity 43%
Rainfall 0.79 in
Snow Depth Not available.
UV 3 out of 12
Pollen 7.20 out of 12
Air Quality Not available.
Flu Activity Sporadic
METAR KSJS 251835Z AUTO 24005KT 10SM BKN070 OVC080 28/16 A3021 RMK AO2 T02810158

More Conditions Fewer Conditions

10-Day Weather Forecast

Almanac

Astronomy

May. 25, 2015 Rise Set
Actual Time
Civil Twilight
Nautical Twilight
Astronomical Twilight
Moon
Length of Visible Light
Length of Day
Tomorrow will be .
, % of the Moon is Illuminated

Today's Extremes

State Highs State Lows

Community

WunderPhotos

Upload Photos

1,824,080 photos uploaded!

WunderBlogs® & News

Nearby

Air Quality

  Air Quality AQ Index Pollutant
Not available.

Snow Depth

Station Depth Elevation

Earthquake Activity

City Distance Mag. Time & Date
Minimum magnitude displayed is 2.5.

Coastal Water Temperatures

Place Temperature

Stations

Nearby Weather Stations

Station Location Temp. Windchill Dew Point Humidity Wind Precip. Elev Updated Type